Okanogan, WA

3:03 AM PDT on August 02, 2014 (GMT -0700)
Omak (KOMK) Elev 1302 ft | 48.46 °N, 119.52 °W | Change Station

Current weather conditions updated 10 minutes ago

Clear
Clear
66 °F
Feels Like 66 °F
N
5
Wind Variable Wind from WNW

Today is forecast to be Warmer than yesterday. Isolated thunderstorms.

Today
High -- | Low -- °F
--% Chance of Precip.
Yesterday
High -- | Low -- °F
Precip. -- in
5:34 AM 8:33 PM
Waxing Crescent, 34% visible
Pressure 29.92 in
Visibility 10.0 miles
Clouds Clear
Dew Point 45 °F
Humidity 47%
Rainfall 0.00 in
Snow Depth Not available.
UV 0 out of 12
Pollen 6.50 out of 12
Air Quality Not available.
Flu Activity Not available.
METAR KOMK 020953Z AUTO 29004KT 10SM CLR 19/07 A2995 RMK AO2 SLP130 T01890072

More Conditions Fewer Conditions

Pressure 29.92 in
Visibility 10.0 miles
Clouds Clear
Dew Point 45 °F
Humidity 47%
Rainfall 0.00 in
Snow Depth Not available.
UV 0 out of 12
Pollen 6.50 out of 12
Air Quality Not available.
Flu Activity Not available.
METAR KOMK 020953Z AUTO 29004KT 10SM CLR 19/07 A2995 RMK AO2 SLP130 T01890072

More Conditions Fewer Conditions

10-Day Weather Forecast

Almanac

Astronomy

Aug. 02, 2014 Rise Set
Actual Time 5:34 AM PDT 8:33 PM PDT
Civil Twilight 4:58 AM PDT 9:09 PM PDT
Nautical Twilight 4:10 AM PDT 9:56 PM PDT
Astronomical Twilight 3:12 AM PDT 10:54 PM PDT
Moon 12:36 PM PDT 11:18 PM PDT
Length of Visible Light 16h 11m
Length of Day
14h 58m
Tomorrow will be 2m 50s shorter.
Waxing Crescent, 34% of the Moon is Illuminated
Today
Waxing Crescent
Aug 3
First Quarter
Aug 10
Full
Aug 17
Last Quarter
Aug 25
New

Today's Extremes

State Highs State Lows

Community

WunderPhotos

Upload Photos

1,739,850 photos uploaded!

Nearby

Snow Depth

Station Depth Elevation
Moses Mountain 1 in 5300 ft
Rainy Pass 0 in 4780 ft
Harts Pass 0 in 6500 ft
Lyman Lake 2 in 5900 ft
Sentinel Butte 0 in 4920 ft

Earthquake Activity

City Distance Mag. Time & Date
No recent earthquake activity has been reported nearby.
Minimum magnitude displayed is 2.5.

Coastal Water Temperatures

Place Temperature
No Stations Reporting

Nearby Weather Stations

Station Location Temp. Heat Index Dew Point Humidity Wind Precip. Elev Updated Type
Brewster, WA 74.7 °F 78 °F 54 °F 48% WSW  at  2.0 mph 0.00 in / hr 1004 ft 3:03 AM PDT Rapid Fire
South Twisp, Twisp, WA 68.7 °F - 50 °F 52% WSW  at  0.0 mph 0.00 in / hr 1608 ft 3:03 AM PDT Rapid Fire
MesoWest Loup Loup Summit , Malott, WA 60 °F - 41 °F 49% North  at  0 mph 0.00 in / hr 4019 ft 1:10 AM PDT MADIS
RAWS LEECHER WA, Carlton, WA 69 °F - 43 °F 39% NNE  at  3 mph 0.00 in / hr 4991 ft 2:25 AM PDT MADIS

Show More Stations Show Fewer Stations